sensor_id;sensor_type;location;lat;lon;timestamp;P1;durP1;ratioP1;P2;durP2;ratioP2
72095;SDS011;59968;51.084;16.748;2022-09-27T00:02:24;13.80;;;6.90;;
72095;SDS011;59968;51.084;16.748;2022-09-27T00:05:39;10.60;;;6.70;;
72095;SDS011;59968;51.084;16.748;2022-09-27T00:08:28;16.20;;;9.30;;
72095;SDS011;59968;51.084;16.748;2022-09-27T00:10:59;17.50;;;9.00;;
72095;SDS011;59968;51.084;16.748;2022-09-27T00:13:29;13.20;;;7.90;;
72095;SDS011;59968;51.084;16.748;2022-09-27T00:15:59;10.90;;;7.00;;
72095;SDS011;59968;51.084;16.748;2022-09-27T00:18:30;11.70;;;6.90;;
72095;SDS011;59968;51.084;16.748;2022-09-27T00:21:06;12.50;;;6.60;;
72095;SDS011;59968;51.084;16.748;2022-09-27T00:23:36;11.70;;;7.20;;
72095;SDS011;59968;51.084;16.748;2022-09-27T00:26:06;11.00;;;6.50;;
72095;SDS011;59968;51.084;16.748;2022-09-27T00:28:37;12.40;;;7.90;;
72095;SDS011;59968;51.084;16.748;2022-09-27T00:31:10;13.30;;;7.60;;
72095;SDS011;59968;51.084;16.748;2022-09-27T00:33:44;13.70;;;7.20;;
72095;SDS011;59968;51.084;16.748;2022-09-27T00:36:14;15.80;;;9.70;;
72095;SDS011;59968;51.084;16.748;2022-09-27T00:38:43;14.40;;;7.90;;
72095;SDS011;59968;51.084;16.748;2022-09-27T00:41:12;18.00;;;11.70;;
72095;SDS011;59968;51.084;16.748;2022-09-27T00:43:57;16.90;;;10.20;;
72095;SDS011;59968;51.084;16.748;2022-09-27T00:49:23;17.80;;;10.60;;
72095;SDS011;59968;51.084;16.748;2022-09-27T00:51:56;15.90;;;9.70;;
72095;SDS011;59968;51.084;16.748;2022-09-27T00:54:29;16.20;;;9.20;;
72095;SDS011;59968;51.084;16.748;2022-09-27T00:57:00;18.90;;;11.30;;
72095;SDS011;59968;51.084;16.748;2022-09-27T00:59:36;17.70;;;10.20;;
72095;SDS011;59968;51.084;16.748;2022-09-27T01:02:08;14.20;;;8.40;;
72095;SDS011;59968;51.084;16.748;2022-09-27T01:04:37;13.30;;;8.40;;
72095;SDS011;59968;51.084;16.748;2022-09-27T01:07:06;14.80;;;8.50;;
72095;SDS011;59968;51.084;16.748;2022-09-27T01:09:35;14.40;;;8.00;;
72095;SDS011;59968;51.084;16.748;2022-09-27T01:26:14;14.20;;;8.40;;
72095;SDS011;59968;51.084;16.748;2022-09-27T01:28:56;13.20;;;7.80;;
72095;SDS011;59968;51.084;16.748;2022-09-27T01:34:23;12.40;;;7.10;;
72095;SDS011;59968;51.084;16.748;2022-09-27T01:37:23;13.10;;;7.40;;
72095;SDS011;59968;51.084;16.748;2022-09-27T01:45:48;12.30;;;7.00;;
72095;SDS011;59968;51.084;16.748;2022-09-27T01:49:19;12.80;;;7.60;;
72095;SDS011;59968;51.084;16.748;2022-09-27T01:51:56;15.40;;;8.50;;
72095;SDS011;59968;51.084;16.748;2022-09-27T01:54:30;14.20;;;7.70;;
72095;SDS011;59968;51.084;16.748;2022-09-27T01:57:39;11.70;;;7.10;;
72095;SDS011;59968;51.084;16.748;2022-09-27T02:00:20;13.90;;;7.80;;
72095;SDS011;59968;51.084;16.748;2022-09-27T02:05:45;16.10;;;8.30;;
72095;SDS011;59968;51.084;16.748;2022-09-27T02:08:45;15.70;;;8.20;;
72095;SDS011;59968;51.084;16.748;2022-09-27T02:11:33;18.40;;;9.30;;
72095;SDS011;59968;51.084;16.748;2022-09-27T02:22:43;14.40;;;8.00;;
72095;SDS011;59968;51.084;16.748;2022-09-27T02:25:20;13.90;;;8.40;;
72095;SDS011;59968;51.084;16.748;2022-09-27T02:30:33;13.00;;;8.10;;
72095;SDS011;59968;51.084;16.748;2022-09-27T02:33:24;13.90;;;8.60;;
72095;SDS011;59968;51.084;16.748;2022-09-27T02:35:57;12.50;;;7.60;;
72095;SDS011;59968;51.084;16.748;2022-09-27T02:38:26;14.90;;;8.00;;
72095;SDS011;59968;51.084;16.748;2022-09-27T02:40:54;13.90;;;8.00;;
72095;SDS011;59968;51.084;16.748;2022-09-27T02:43:24;15.10;;;8.70;;
72095;SDS011;59968;51.084;16.748;2022-09-27T02:46:10;13.40;;;7.30;;
72095;SDS011;59968;51.084;16.748;2022-09-27T02:57:56;13.10;;;8.00;;
72095;SDS011;59968;51.084;16.748;2022-09-27T03:03:45;12.60;;;7.60;;
72095;SDS011;59968;51.084;16.748;2022-09-27T03:06:18;13.70;;;7.90;;
72095;SDS011;59968;51.084;16.748;2022-09-27T03:08:50;12.30;;;7.60;;
72095;SDS011;59968;51.084;16.748;2022-09-27T03:11:18;13.60;;;8.10;;
72095;SDS011;59968;51.084;16.748;2022-09-27T03:13:47;12.40;;;7.70;;
72095;SDS011;59968;51.084;16.748;2022-09-27T03:16:38;13.00;;;8.00;;
72095;SDS011;59968;51.084;16.748;2022-09-27T03:19:32;12.70;;;7.00;;
72095;SDS011;59968;51.084;16.748;2022-09-27T03:22:19;12.90;;;7.20;;
72095;SDS011;59968;51.084;16.748;2022-09-27T03:24:48;13.10;;;7.00;;
72095;SDS011;59968;51.084;16.748;2022-09-27T03:27:17;12.10;;;7.60;;
72095;SDS011;59968;51.084;16.748;2022-09-27T03:29:45;12.00;;;7.30;;
72095;SDS011;59968;51.084;16.748;2022-09-27T03:32:13;11.60;;;7.10;;
72095;SDS011;59968;51.084;16.748;2022-09-27T03:35:05;13.50;;;7.10;;
72095;SDS011;59968;51.084;16.748;2022-09-27T03:37:33;15.80;;;6.70;;
72095;SDS011;59968;51.084;16.748;2022-09-27T03:40:02;11.40;;;6.80;;
72095;SDS011;59968;51.084;16.748;2022-09-27T03:42:31;11.40;;;6.50;;
72095;SDS011;59968;51.084;16.748;2022-09-27T03:45:00;11.10;;;6.50;;
72095;SDS011;59968;51.084;16.748;2022-09-27T03:47:32;11.10;;;6.60;;
72095;SDS011;59968;51.084;16.748;2022-09-27T03:50:00;11.90;;;6.60;;
72095;SDS011;59968;51.084;16.748;2022-09-27T03:52:29;15.30;;;6.70;;
72095;SDS011;59968;51.084;16.748;2022-09-27T03:54:57;11.60;;;7.10;;
72095;SDS011;59968;51.084;16.748;2022-09-27T03:57:32;11.70;;;6.60;;
72095;SDS011;59968;51.084;16.748;2022-09-27T04:00:03;10.00;;;6.10;;
72095;SDS011;59968;51.084;16.748;2022-09-27T04:02:39;11.20;;;6.30;;
72095;SDS011;59968;51.084;16.748;2022-09-27T04:05:40;11.40;;;5.60;;
72095;SDS011;59968;51.084;16.748;2022-09-27T04:08:12;12.30;;;6.10;;
72095;SDS011;59968;51.084;16.748;2022-09-27T04:10:41;10.30;;;6.10;;
72095;SDS011;59968;51.084;16.748;2022-09-27T04:13:10;12.30;;;6.70;;
72095;SDS011;59968;51.084;16.748;2022-09-27T04:15:43;9.80;;;5.90;;
72095;SDS011;59968;51.084;16.748;2022-09-27T04:18:47;9.50;;;5.20;;
72095;SDS011;59968;51.084;16.748;2022-09-27T04:21:38;9.70;;;5.70;;
72095;SDS011;59968;51.084;16.748;2022-09-27T04:24:07;8.60;;;5.30;;
72095;SDS011;59968;51.084;16.748;2022-09-27T04:26:36;10.40;;;5.10;;
72095;SDS011;59968;51.084;16.748;2022-09-27T04:29:11;8.80;;;5.20;;
72095;SDS011;59968;51.084;16.748;2022-09-27T04:31:41;9.50;;;5.60;;
72095;SDS011;59968;51.084;16.748;2022-09-27T04:34:11;8.60;;;5.50;;
72095;SDS011;59968;51.084;16.748;2022-09-27T04:36:40;9.00;;;5.80;;
72095;SDS011;59968;51.084;16.748;2022-09-27T04:39:11;8.70;;;5.00;;
72095;SDS011;59968;51.084;16.748;2022-09-27T04:41:42;9.50;;;5.50;;
72095;SDS011;59968;51.084;16.748;2022-09-27T04:44:10;9.50;;;5.60;;
72095;SDS011;59968;51.084;16.748;2022-09-27T04:46:40;9.50;;;5.70;;
72095;SDS011;59968;51.084;16.748;2022-09-27T04:49:10;8.70;;;5.60;;
72095;SDS011;59968;51.084;16.748;2022-09-27T04:51:44;9.90;;;5.80;;
72095;SDS011;59968;51.084;16.748;2022-09-27T04:54:13;10.40;;;5.70;;
72095;SDS011;59968;51.084;16.748;2022-09-27T04:56:54;8.40;;;5.40;;
72095;SDS011;59968;51.084;16.748;2022-09-27T04:59:23;9.00;;;5.70;;
72095;SDS011;59968;51.084;16.748;2022-09-27T05:01:52;8.80;;;5.10;;
72095;SDS011;59968;51.084;16.748;2022-09-27T05:04:44;10.20;;;5.80;;
72095;SDS011;59968;51.084;16.748;2022-09-27T05:07:14;8.30;;;5.00;;
72095;SDS011;59968;51.084;16.748;2022-09-27T05:09:45;9.50;;;4.80;;
72095;SDS011;59968;51.084;16.748;2022-09-27T05:12:14;9.40;;;5.90;;
72095;SDS011;59968;51.084;16.748;2022-09-27T05:14:56;11.40;;;6.00;;
72095;SDS011;59968;51.084;16.748;2022-09-27T05:17:43;10.60;;;5.90;;
72095;SDS011;59968;51.084;16.748;2022-09-27T05:20:24;9.00;;;5.60;;
72095;SDS011;59968;51.084;16.748;2022-09-27T05:23:01;9.40;;;5.00;;
72095;SDS011;59968;51.084;16.748;2022-09-27T05:25:32;11.40;;;5.30;;
72095;SDS011;59968;51.084;16.748;2022-09-27T05:28:00;10.60;;;5.50;;
72095;SDS011;59968;51.084;16.748;2022-09-27T05:30:30;10.50;;;6.00;;
72095;SDS011;59968;51.084;16.748;2022-09-27T05:33:11;11.40;;;6.40;;
72095;SDS011;59968;51.084;16.748;2022-09-27T05:35:52;10.40;;;6.20;;
72095;SDS011;59968;51.084;16.748;2022-09-27T05:38:23;10.90;;;6.50;;
72095;SDS011;59968;51.084;16.748;2022-09-27T05:40:55;11.10;;;6.60;;
72095;SDS011;59968;51.084;16.748;2022-09-27T05:43:24;12.40;;;6.70;;
72095;SDS011;59968;51.084;16.748;2022-09-27T05:45:55;12.70;;;6.90;;
72095;SDS011;59968;51.084;16.748;2022-09-27T05:48:24;11.20;;;7.00;;
72095;SDS011;59968;51.084;16.748;2022-09-27T05:50:59;10.90;;;6.40;;
72095;SDS011;59968;51.084;16.748;2022-09-27T05:53:29;12.40;;;7.10;;
72095;SDS011;59968;51.084;16.748;2022-09-27T05:56:00;10.60;;;6.60;;
72095;SDS011;59968;51.084;16.748;2022-09-27T05:58:42;11.10;;;6.80;;
72095;SDS011;59968;51.084;16.748;2022-09-27T06:01:16;12.70;;;7.30;;
72095;SDS011;59968;51.084;16.748;2022-09-27T06:04:12;12.30;;;7.40;;
72095;SDS011;59968;51.084;16.748;2022-09-27T06:06:55;12.50;;;7.40;;
72095;SDS011;59968;51.084;16.748;2022-09-27T06:09:25;14.60;;;6.80;;
72095;SDS011;59968;51.084;16.748;2022-09-27T06:11:56;13.40;;;7.60;;
72095;SDS011;59968;51.084;16.748;2022-09-27T06:14:28;14.50;;;7.70;;
72095;SDS011;59968;51.084;16.748;2022-09-27T06:17:03;12.60;;;7.70;;
72095;SDS011;59968;51.084;16.748;2022-09-27T06:19:34;14.00;;;7.50;;
72095;SDS011;59968;51.084;16.748;2022-09-27T06:22:07;12.10;;;6.80;;
72095;SDS011;59968;51.084;16.748;2022-09-27T06:24:53;11.60;;;6.70;;
72095;SDS011;59968;51.084;16.748;2022-09-27T06:27:25;10.10;;;6.30;;
72095;SDS011;59968;51.084;16.748;2022-09-27T06:29:59;12.50;;;6.30;;
72095;SDS011;59968;51.084;16.748;2022-09-27T06:32:43;11.10;;;6.70;;
72095;SDS011;59968;51.084;16.748;2022-09-27T06:35:35;12.50;;;7.10;;
72095;SDS011;59968;51.084;16.748;2022-09-27T06:38:04;11.70;;;6.70;;
72095;SDS011;59968;51.084;16.748;2022-09-27T06:40:38;9.50;;;6.20;;
72095;SDS011;59968;51.084;16.748;2022-09-27T06:43:40;10.90;;;6.40;;
72095;SDS011;59968;51.084;16.748;2022-09-27T06:46:31;11.90;;;6.40;;
72095;SDS011;59968;51.084;16.748;2022-09-27T06:49:15;10.50;;;6.00;;
72095;SDS011;59968;51.084;16.748;2022-09-27T06:51:44;14.20;;;7.40;;
72095;SDS011;59968;51.084;16.748;2022-09-27T06:54:13;11.50;;;6.30;;
72095;SDS011;59968;51.084;16.748;2022-09-27T06:56:47;11.10;;;6.70;;
72095;SDS011;59968;51.084;16.748;2022-09-27T06:59:18;10.40;;;6.40;;
72095;SDS011;59968;51.084;16.748;2022-09-27T07:02:33;10.50;;;6.40;;
72095;SDS011;59968;51.084;16.748;2022-09-27T07:05:22;11.00;;;6.20;;
72095;SDS011;59968;51.084;16.748;2022-09-27T07:08:06;10.10;;;6.20;;
72095;SDS011;59968;51.084;16.748;2022-09-27T07:10:40;10.30;;;5.70;;
72095;SDS011;59968;51.084;16.748;2022-09-27T07:13:09;9.70;;;5.50;;
72095;SDS011;59968;51.084;16.748;2022-09-27T07:15:39;9.80;;;5.60;;
72095;SDS011;59968;51.084;16.748;2022-09-27T07:18:13;11.30;;;5.40;;
72095;SDS011;59968;51.084;16.748;2022-09-27T07:20:46;10.00;;;6.00;;
72095;SDS011;59968;51.084;16.748;2022-09-27T07:23:18;8.70;;;5.20;;
72095;SDS011;59968;51.084;16.748;2022-09-27T07:25:49;12.50;;;5.70;;
72095;SDS011;59968;51.084;16.748;2022-09-27T07:28:19;11.00;;;5.90;;
72095;SDS011;59968;51.084;16.748;2022-09-27T07:30:53;9.80;;;5.50;;
72095;SDS011;59968;51.084;16.748;2022-09-27T07:33:23;9.20;;;5.80;;
72095;SDS011;59968;51.084;16.748;2022-09-27T07:35:53;9.00;;;5.10;;
72095;SDS011;59968;51.084;16.748;2022-09-27T07:38:23;10.80;;;6.20;;
72095;SDS011;59968;51.084;16.748;2022-09-27T07:40:54;10.00;;;6.10;;
72095;SDS011;59968;51.084;16.748;2022-09-27T07:43:24;8.80;;;5.50;;
72095;SDS011;59968;51.084;16.748;2022-09-27T07:45:55;11.00;;;6.00;;
72095;SDS011;59968;51.084;16.748;2022-09-27T07:48:35;9.00;;;5.30;;
72095;SDS011;59968;51.084;16.748;2022-09-27T07:51:14;8.60;;;5.30;;
72095;SDS011;59968;51.084;16.748;2022-09-27T07:53:47;9.80;;;5.60;;
72095;SDS011;59968;51.084;16.748;2022-09-27T07:56:48;10.50;;;5.60;;
72095;SDS011;59968;51.084;16.748;2022-09-27T07:59:19;13.50;;;5.70;;
72095;SDS011;59968;51.084;16.748;2022-09-27T08:01:52;8.60;;;5.50;;
72095;SDS011;59968;51.084;16.748;2022-09-27T08:04:23;8.70;;;5.10;;
72095;SDS011;59968;51.084;16.748;2022-09-27T08:06:52;11.30;;;5.40;;
72095;SDS011;59968;51.084;16.748;2022-09-27T08:09:22;9.10;;;5.20;;
72095;SDS011;59968;51.084;16.748;2022-09-27T08:11:55;9.40;;;5.40;;
72095;SDS011;59968;51.084;16.748;2022-09-27T08:14:25;8.80;;;5.30;;
72095;SDS011;59968;51.084;16.748;2022-09-27T08:16:54;12.00;;;5.90;;
72095;SDS011;59968;51.084;16.748;2022-09-27T08:19:29;9.40;;;5.30;;
72095;SDS011;59968;51.084;16.748;2022-09-27T08:22:17;8.70;;;5.60;;
72095;SDS011;59968;51.084;16.748;2022-09-27T08:24:59;9.00;;;5.30;;
72095;SDS011;59968;51.084;16.748;2022-09-27T08:27:41;9.40;;;5.20;;
72095;SDS011;59968;51.084;16.748;2022-09-27T08:30:25;10.80;;;5.80;;
72095;SDS011;59968;51.084;16.748;2022-09-27T08:32:56;10.40;;;5.80;;
72095;SDS011;59968;51.084;16.748;2022-09-27T08:35:27;8.20;;;5.20;;
72095;SDS011;59968;51.084;16.748;2022-09-27T08:37:57;10.70;;;5.80;;
72095;SDS011;59968;51.084;16.748;2022-09-27T08:40:33;9.80;;;5.60;;
72095;SDS011;59968;51.084;16.748;2022-09-27T08:43:09;11.40;;;5.40;;
72095;SDS011;59968;51.084;16.748;2022-09-27T08:45:53;9.40;;;5.30;;
72095;SDS011;59968;51.084;16.748;2022-09-27T08:48:25;9.20;;;5.80;;
72095;SDS011;59968;51.084;16.748;2022-09-27T08:50:59;9.70;;;6.00;;
72095;SDS011;59968;51.084;16.748;2022-09-27T08:53:37;10.60;;;5.90;;
72095;SDS011;59968;51.084;16.748;2022-09-27T08:56:13;10.30;;;5.80;;
72095;SDS011;59968;51.084;16.748;2022-09-27T08:58:51;8.50;;;5.20;;
72095;SDS011;59968;51.084;16.748;2022-09-27T09:01:44;9.80;;;5.00;;
72095;SDS011;59968;51.084;16.748;2022-09-27T09:30:43;14.50;;;7.20;;
72095;SDS011;59968;51.084;16.748;2022-09-27T09:33:38;13.60;;;7.10;;
72095;SDS011;59968;51.084;16.748;2022-09-27T09:39:17;11.80;;;6.60;;
72095;SDS011;59968;51.084;16.748;2022-09-27T09:42:41;11.90;;;7.00;;
72095;SDS011;59968;51.084;16.748;2022-09-27T09:44:56;11.50;;;6.60;;
72095;SDS011;59968;51.084;16.748;2022-09-27T09:50:30;12.90;;;7.40;;
72095;SDS011;59968;51.084;16.748;2022-09-27T09:53:14;10.80;;;6.10;;
72095;SDS011;59968;51.084;16.748;2022-09-27T09:56:01;10.40;;;6.70;;
72095;SDS011;59968;51.084;16.748;2022-09-27T09:58:42;11.40;;;6.20;;
72095;SDS011;59968;51.084;16.748;2022-09-27T10:04:08;10.80;;;6.60;;
72095;SDS011;59968;51.084;16.748;2022-09-27T10:06:51;10.80;;;6.60;;
72095;SDS011;59968;51.084;16.748;2022-09-27T10:09:21;12.30;;;6.70;;
72095;SDS011;59968;51.084;16.748;2022-09-27T10:12:16;10.00;;;6.60;;
72095;SDS011;59968;51.084;16.748;2022-09-27T10:14:47;10.30;;;5.90;;
72095;SDS011;59968;51.084;16.748;2022-09-27T10:17:19;10.00;;;6.20;;
72095;SDS011;59968;51.084;16.748;2022-09-27T10:19:55;11.00;;;6.70;;
72095;SDS011;59968;51.084;16.748;2022-09-27T10:22:27;10.80;;;6.20;;
72095;SDS011;59968;51.084;16.748;2022-09-27T10:25:13;10.90;;;6.40;;
72095;SDS011;59968;51.084;16.748;2022-09-27T10:27:57;12.00;;;6.60;;
72095;SDS011;59968;51.084;16.748;2022-09-27T10:30:32;10.40;;;5.90;;
72095;SDS011;59968;51.084;16.748;2022-09-27T10:33:16;9.50;;;5.70;;
72095;SDS011;59968;51.084;16.748;2022-09-27T10:35:52;10.10;;;6.30;;
72095;SDS011;59968;51.084;16.748;2022-09-27T10:38:39;12.30;;;6.30;;
72095;SDS011;59968;51.084;16.748;2022-09-27T10:46:50;10.60;;;6.10;;
72095;SDS011;59968;51.084;16.748;2022-09-27T10:49:35;9.60;;;5.10;;
72095;SDS011;59968;51.084;16.748;2022-09-27T10:52:34;10.80;;;6.20;;
72095;SDS011;59968;51.084;16.748;2022-09-27T10:57:55;10.60;;;5.70;;
72095;SDS011;59968;51.084;16.748;2022-09-27T11:00:33;9.50;;;5.80;;
72095;SDS011;59968;51.084;16.748;2022-09-27T11:03:06;10.00;;;5.80;;
72095;SDS011;59968;51.084;16.748;2022-09-27T11:05:42;10.20;;;5.60;;
72095;SDS011;59968;51.084;16.748;2022-09-27T11:19:31;9.00;;;6.00;;
72095;SDS011;59968;51.084;16.748;2022-09-27T11:54:19;8.50;;;5.00;;
72095;SDS011;59968;51.084;16.748;2022-09-27T12:00:07;6.90;;;4.00;;
72095;SDS011;59968;51.084;16.748;2022-09-27T12:05:59;6.10;;;3.60;;
72095;SDS011;59968;51.084;16.748;2022-09-27T12:09:07;6.40;;;3.60;;
72095;SDS011;59968;51.084;16.748;2022-09-27T12:14:38;5.40;;;3.20;;
72095;SDS011;59968;51.084;16.748;2022-09-27T12:17:23;5.50;;;3.20;;
72095;SDS011;59968;51.084;16.748;2022-09-27T12:20:01;5.60;;;3.40;;
72095;SDS011;59968;51.084;16.748;2022-09-27T12:25:52;5.70;;;3.50;;
72095;SDS011;59968;51.084;16.748;2022-09-27T12:34:03;6.00;;;3.00;;
72095;SDS011;59968;51.084;16.748;2022-09-27T12:36:50;6.40;;;3.50;;
72095;SDS011;59968;51.084;16.748;2022-09-27T12:42:32;6.30;;;3.60;;
72095;SDS011;59968;51.084;16.748;2022-09-27T12:45:25;5.90;;;2.80;;
72095;SDS011;59968;51.084;16.748;2022-09-27T12:51:29;4.00;;;2.90;;
72095;SDS011;59968;51.084;16.748;2022-09-27T13:02:42;5.00;;;2.60;;
72095;SDS011;59968;51.084;16.748;2022-09-27T13:14:24;3.80;;;2.30;;
72095;SDS011;59968;51.084;16.748;2022-09-27T13:17:04;3.40;;;2.10;;
72095;SDS011;59968;51.084;16.748;2022-09-27T13:28:37;3.40;;;1.90;;
72095;SDS011;59968;51.084;16.748;2022-09-27T13:34:42;3.40;;;1.90;;
72095;SDS011;59968;51.084;16.748;2022-09-27T13:37:55;2.70;;;1.90;;
72095;SDS011;59968;51.084;16.748;2022-09-27T13:40:35;2.50;;;1.80;;
72095;SDS011;59968;51.084;16.748;2022-09-27T13:46:22;3.40;;;2.10;;
72095;SDS011;59968;51.084;16.748;2022-09-27T13:49:01;3.40;;;1.90;;
72095;SDS011;59968;51.084;16.748;2022-09-27T13:52:21;3.10;;;1.90;;
72095;SDS011;59968;51.084;16.748;2022-09-27T13:55:53;3.30;;;2.00;;
72095;SDS011;59968;51.084;16.748;2022-09-27T13:58:33;3.30;;;1.90;;
72095;SDS011;59968;51.084;16.748;2022-09-27T14:04:13;4.30;;;1.80;;
72095;SDS011;59968;51.084;16.748;2022-09-27T14:06:44;3.80;;;1.90;;
72095;SDS011;59968;51.084;16.748;2022-09-27T14:09:19;2.80;;;2.00;;
72095;SDS011;59968;51.084;16.748;2022-09-27T14:12:01;3.10;;;1.70;;
72095;SDS011;59968;51.084;16.748;2022-09-27T14:14:40;2.90;;;1.80;;
72095;SDS011;59968;51.084;16.748;2022-09-27T14:17:13;2.80;;;1.60;;
72095;SDS011;59968;51.084;16.748;2022-09-27T14:19:54;2.70;;;1.70;;
72095;SDS011;59968;51.084;16.748;2022-09-27T14:22:28;3.60;;;1.70;;
72095;SDS011;59968;51.084;16.748;2022-09-27T14:24:59;2.80;;;1.80;;
72095;SDS011;59968;51.084;16.748;2022-09-27T14:27:39;4.10;;;2.70;;
72095;SDS011;59968;51.084;16.748;2022-09-27T14:30:36;4.20;;;2.10;;
72095;SDS011;59968;51.084;16.748;2022-09-27T14:33:27;4.10;;;2.10;;
72095;SDS011;59968;51.084;16.748;2022-09-27T14:36:16;9.60;;;3.90;;
72095;SDS011;59968;51.084;16.748;2022-09-27T14:39:12;19.30;;;7.10;;
72095;SDS011;59968;51.084;16.748;2022-09-27T14:42:03;17.20;;;5.50;;
72095;SDS011;59968;51.084;16.748;2022-09-27T14:44:46;21.90;;;7.10;;
72095;SDS011;59968;51.084;16.748;2022-09-27T14:47:19;11.60;;;4.70;;
72095;SDS011;59968;51.084;16.748;2022-09-27T14:50:26;20.50;;;7.00;;
72095;SDS011;59968;51.084;16.748;2022-09-27T14:53:20;13.00;;;5.10;;
72095;SDS011;59968;51.084;16.748;2022-09-27T14:56:02;11.00;;;5.00;;
72095;SDS011;59968;51.084;16.748;2022-09-27T14:58:41;8.20;;;3.50;;
72095;SDS011;59968;51.084;16.748;2022-09-27T15:01:17;4.50;;;2.50;;
72095;SDS011;59968;51.084;16.748;2022-09-27T15:03:52;3.60;;;2.00;;
72095;SDS011;59968;51.084;16.748;2022-09-27T15:06:39;4.60;;;2.40;;
72095;SDS011;59968;51.084;16.748;2022-09-27T15:09:20;3.50;;;2.20;;
72095;SDS011;59968;51.084;16.748;2022-09-27T15:11:58;3.60;;;2.30;;
72095;SDS011;59968;51.084;16.748;2022-09-27T15:14:36;4.20;;;2.20;;
72095;SDS011;59968;51.084;16.748;2022-09-27T15:17:22;5.30;;;3.00;;
72095;SDS011;59968;51.084;16.748;2022-09-27T15:20:16;4.40;;;2.60;;
72095;SDS011;59968;51.084;16.748;2022-09-27T15:22:59;4.90;;;2.60;;
72095;SDS011;59968;51.084;16.748;2022-09-27T15:26:05;5.30;;;2.50;;
72095;SDS011;59968;51.084;16.748;2022-09-27T15:28:56;3.80;;;2.60;;
72095;SDS011;59968;51.084;16.748;2022-09-27T15:31:33;2.70;;;1.90;;
72095;SDS011;59968;51.084;16.748;2022-09-27T15:34:16;3.30;;;2.10;;
72095;SDS011;59968;51.084;16.748;2022-09-27T15:37:04;2.90;;;1.80;;
72095;SDS011;59968;51.084;16.748;2022-09-27T15:39:44;3.10;;;1.70;;
72095;SDS011;59968;51.084;16.748;2022-09-27T15:42:24;3.30;;;1.80;;
72095;SDS011;59968;51.084;16.748;2022-09-27T15:45:07;4.00;;;1.90;;
72095;SDS011;59968;51.084;16.748;2022-09-27T15:48:20;3.20;;;1.70;;
72095;SDS011;59968;51.084;16.748;2022-09-27T15:51:02;2.30;;;1.30;;
72095;SDS011;59968;51.084;16.748;2022-09-27T15:53:58;0.80;;;0.50;;
72095;SDS011;59968;51.084;16.748;2022-09-27T15:56:33;1.40;;;0.60;;
72095;SDS011;59968;51.084;16.748;2022-09-27T15:59:19;1.10;;;0.70;;
72095;SDS011;59968;51.084;16.748;2022-09-27T16:02:11;1.30;;;0.60;;
72095;SDS011;59968;51.084;16.748;2022-09-27T16:04:58;1.50;;;0.50;;
72095;SDS011;59968;51.084;16.748;2022-09-27T16:07:35;0.60;;;0.60;;
72095;SDS011;59968;51.084;16.748;2022-09-27T16:10:16;1.30;;;0.70;;
72095;SDS011;59968;51.084;16.748;2022-09-27T16:12:52;0.90;;;0.70;;
72095;SDS011;59968;51.084;16.748;2022-09-27T16:15:31;1.00;;;0.80;;
72095;SDS011;59968;51.084;16.748;2022-09-27T16:18:07;1.20;;;0.70;;
72095;SDS011;59968;51.084;16.748;2022-09-27T16:20:44;2.40;;;1.00;;
72095;SDS011;59968;51.084;16.748;2022-09-27T16:23:23;3.10;;;1.60;;
72095;SDS011;59968;51.084;16.748;2022-09-27T16:26:05;3.20;;;1.30;;
72095;SDS011;59968;51.084;16.748;2022-09-27T16:28:42;3.00;;;1.30;;
72095;SDS011;59968;51.084;16.748;2022-09-27T16:31:16;2.80;;;1.00;;
72095;SDS011;59968;51.084;16.748;2022-09-27T16:33:55;2.30;;;1.10;;
72095;SDS011;59968;51.084;16.748;2022-09-27T16:36:41;4.50;;;1.20;;
72095;SDS011;59968;51.084;16.748;2022-09-27T16:39:23;2.60;;;1.20;;
72095;SDS011;59968;51.084;16.748;2022-09-27T16:42:01;2.40;;;1.50;;
72095;SDS011;59968;51.084;16.748;2022-09-27T16:44:43;3.40;;;1.50;;
72095;SDS011;59968;51.084;16.748;2022-09-27T16:47:39;3.30;;;1.30;;
72095;SDS011;59968;51.084;16.748;2022-09-27T16:50:16;4.50;;;1.80;;
72095;SDS011;59968;51.084;16.748;2022-09-27T16:53:25;9.10;;;1.90;;
72095;SDS011;59968;51.084;16.748;2022-09-27T16:56:16;3.60;;;1.40;;
72095;SDS011;59968;51.084;16.748;2022-09-27T16:59:06;3.50;;;1.40;;
72095;SDS011;59968;51.084;16.748;2022-09-27T17:01:46;2.40;;;1.10;;
72095;SDS011;59968;51.084;16.748;2022-09-27T17:04:40;1.90;;;1.10;;
72095;SDS011;59968;51.084;16.748;2022-09-27T17:07:29;2.50;;;1.30;;
72095;SDS011;59968;51.084;16.748;2022-09-27T17:10:10;2.70;;;1.30;;
72095;SDS011;59968;51.084;16.748;2022-09-27T17:12:49;3.10;;;1.40;;
72095;SDS011;59968;51.084;16.748;2022-09-27T17:15:30;4.00;;;1.80;;
72095;SDS011;59968;51.084;16.748;2022-09-27T17:18:07;4.80;;;1.70;;
72095;SDS011;59968;51.084;16.748;2022-09-27T17:20:59;3.20;;;1.80;;
72095;SDS011;59968;51.084;16.748;2022-09-27T17:23:31;5.20;;;1.80;;
72095;SDS011;59968;51.084;16.748;2022-09-27T17:26:07;4.00;;;2.20;;
72095;SDS011;59968;51.084;16.748;2022-09-27T17:28:42;5.10;;;2.40;;
72095;SDS011;59968;51.084;16.748;2022-09-27T17:31:14;5.70;;;3.30;;
72095;SDS011;59968;51.084;16.748;2022-09-27T17:33:50;4.20;;;2.30;;
72095;SDS011;59968;51.084;16.748;2022-09-27T17:36:33;7.70;;;3.20;;
72095;SDS011;59968;51.084;16.748;2022-09-27T17:39:19;5.90;;;2.30;;
72095;SDS011;59968;51.084;16.748;2022-09-27T17:41:52;4.60;;;2.00;;
72095;SDS011;59968;51.084;16.748;2022-09-27T17:44:30;4.40;;;1.70;;
72095;SDS011;59968;51.084;16.748;2022-09-27T17:47:02;3.70;;;1.70;;
72095;SDS011;59968;51.084;16.748;2022-09-27T17:50:00;4.20;;;2.10;;
72095;SDS011;59968;51.084;16.748;2022-09-27T17:52:55;5.60;;;2.00;;
72095;SDS011;59968;51.084;16.748;2022-09-27T17:55:37;5.40;;;2.40;;
72095;SDS011;59968;51.084;16.748;2022-09-27T17:58:09;4.80;;;2.40;;
72095;SDS011;59968;51.084;16.748;2022-09-27T18:00:41;5.40;;;2.80;;
72095;SDS011;59968;51.084;16.748;2022-09-27T18:03:14;7.90;;;3.70;;
72095;SDS011;59968;51.084;16.748;2022-09-27T18:05:44;9.00;;;4.60;;
72095;SDS011;59968;51.084;16.748;2022-09-27T18:08:27;9.00;;;4.50;;
72095;SDS011;59968;51.084;16.748;2022-09-27T18:11:06;10.10;;;5.10;;
72095;SDS011;59968;51.084;16.748;2022-09-27T18:13:50;10.10;;;5.30;;
72095;SDS011;59968;51.084;16.748;2022-09-27T18:16:39;11.90;;;5.20;;
72095;SDS011;59968;51.084;16.748;2022-09-27T18:19:19;9.90;;;4.70;;
72095;SDS011;59968;51.084;16.748;2022-09-27T18:21:55;7.30;;;4.20;;
72095;SDS011;59968;51.084;16.748;2022-09-27T18:24:35;8.50;;;3.80;;
72095;SDS011;59968;51.084;16.748;2022-09-27T18:27:13;8.40;;;3.70;;
72095;SDS011;59968;51.084;16.748;2022-09-27T18:29:46;8.00;;;3.40;;
72095;SDS011;59968;51.084;16.748;2022-09-27T18:32:25;4.80;;;2.50;;
72095;SDS011;59968;51.084;16.748;2022-09-27T18:35:03;8.00;;;3.00;;
72095;SDS011;59968;51.084;16.748;2022-09-27T18:37:43;14.10;;;5.20;;
72095;SDS011;59968;51.084;16.748;2022-09-27T18:40:26;12.20;;;5.30;;
72095;SDS011;59968;51.084;16.748;2022-09-27T18:43:29;33.30;;;11.30;;
72095;SDS011;59968;51.084;16.748;2022-09-27T18:46:11;54.70;;;20.50;;
72095;SDS011;59968;51.084;16.748;2022-09-27T18:49:10;37.90;;;13.40;;
72095;SDS011;59968;51.084;16.748;2022-09-27T18:51:44;34.80;;;13.60;;
72095;SDS011;59968;51.084;16.748;2022-09-27T18:54:23;41.90;;;15.10;;
72095;SDS011;59968;51.084;16.748;2022-09-27T18:57:01;40.60;;;14.80;;
72095;SDS011;59968;51.084;16.748;2022-09-27T18:59:38;52.10;;;17.50;;